sensor_id;sensor_type;location;lat;lon;timestamp;P1;durP1;ratioP1;P2;durP2;ratioP2
63350;SDS011;64988;51.058;17.040;2022-12-18T00:00:11;67.05;;;19.23;;
63350;SDS011;64988;51.058;17.040;2022-12-18T00:06:04;62.58;;;20.30;;
63350;SDS011;64988;51.058;17.040;2022-12-18T00:11:56;59.73;;;18.03;;
63350;SDS011;64988;51.058;17.040;2022-12-18T00:17:49;59.60;;;16.85;;
63350;SDS011;64988;51.058;17.040;2022-12-18T00:23:42;57.10;;;15.70;;
63350;SDS011;64988;51.058;17.040;2022-12-18T00:29:35;47.47;;;14.95;;
63350;SDS011;64988;51.058;17.040;2022-12-18T00:35:28;56.50;;;17.48;;
63350;SDS011;64988;51.058;17.040;2022-12-18T00:41:21;53.25;;;15.80;;
63350;SDS011;64988;51.058;17.040;2022-12-18T00:47:33;42.47;;;14.98;;
63350;SDS011;64988;51.058;17.040;2022-12-18T00:53:25;42.05;;;14.60;;
63350;SDS011;64988;51.058;17.040;2022-12-18T00:59:18;41.77;;;13.47;;
63350;SDS011;64988;51.058;17.040;2022-12-18T01:05:11;44.77;;;15.00;;
63350;SDS011;64988;51.058;17.040;2022-12-18T01:11:08;46.30;;;13.45;;
63350;SDS011;64988;51.058;17.040;2022-12-18T01:17:01;45.30;;;13.98;;
63350;SDS011;64988;51.058;17.040;2022-12-18T01:22:56;50.92;;;15.02;;
63350;SDS011;64988;51.058;17.040;2022-12-18T01:28:49;46.58;;;14.73;;
63350;SDS011;64988;51.058;17.040;2022-12-18T01:34:42;41.20;;;13.32;;
63350;SDS011;64988;51.058;17.040;2022-12-18T01:40:34;41.63;;;12.77;;
63350;SDS011;64988;51.058;17.040;2022-12-18T01:46:26;38.47;;;13.93;;
63350;SDS011;64988;51.058;17.040;2022-12-18T01:52:21;37.28;;;14.13;;
63350;SDS011;64988;51.058;17.040;2022-12-18T01:58:16;40.42;;;14.20;;
63350;SDS011;64988;51.058;17.040;2022-12-18T02:10:19;40.38;;;14.00;;
63350;SDS011;64988;51.058;17.040;2022-12-18T02:16:38;47.92;;;14.90;;
63350;SDS011;64988;51.058;17.040;2022-12-18T02:29:08;39.73;;;13.03;;
63350;SDS011;64988;51.058;17.040;2022-12-18T02:35:06;39.35;;;12.90;;
63350;SDS011;64988;51.058;17.040;2022-12-18T02:41:05;44.35;;;14.05;;
63350;SDS011;64988;51.058;17.040;2022-12-18T02:46:59;43.20;;;13.57;;
63350;SDS011;64988;51.058;17.040;2022-12-18T02:59:29;45.50;;;14.73;;
63350;SDS011;64988;51.058;17.040;2022-12-18T03:05:31;41.17;;;13.93;;
63350;SDS011;64988;51.058;17.040;2022-12-18T03:11:30;37.00;;;13.45;;
63350;SDS011;64988;51.058;17.040;2022-12-18T03:17:46;39.88;;;13.90;;
63350;SDS011;64988;51.058;17.040;2022-12-18T03:23:54;42.30;;;14.25;;
63350;SDS011;64988;51.058;17.040;2022-12-18T03:29:52;38.10;;;12.88;;
63350;SDS011;64988;51.058;17.040;2022-12-18T03:36:01;46.72;;;15.15;;
63350;SDS011;64988;51.058;17.040;2022-12-18T03:42:11;45.47;;;14.40;;
63350;SDS011;64988;51.058;17.040;2022-12-18T03:54:34;48.53;;;15.00;;
63350;SDS011;64988;51.058;17.040;2022-12-18T04:00:36;50.10;;;15.25;;
63350;SDS011;64988;51.058;17.040;2022-12-18T04:06:35;48.88;;;14.52;;
63350;SDS011;64988;51.058;17.040;2022-12-18T04:12:29;45.72;;;14.32;;
63350;SDS011;64988;51.058;17.040;2022-12-18T04:18:21;43.45;;;14.38;;
63350;SDS011;64988;51.058;17.040;2022-12-18T04:24:16;51.58;;;16.17;;
63350;SDS011;64988;51.058;17.040;2022-12-18T04:30:18;45.97;;;15.52;;
63350;SDS011;64988;51.058;17.040;2022-12-18T04:36:10;45.60;;;16.00;;
63350;SDS011;64988;51.058;17.040;2022-12-18T04:42:05;51.92;;;16.58;;
63350;SDS011;64988;51.058;17.040;2022-12-18T04:53:51;41.43;;;15.43;;
63350;SDS011;64988;51.058;17.040;2022-12-18T04:59:44;45.67;;;15.43;;
63350;SDS011;64988;51.058;17.040;2022-12-18T05:05:37;48.45;;;15.05;;
63350;SDS011;64988;51.058;17.040;2022-12-18T05:11:31;45.22;;;16.00;;
63350;SDS011;64988;51.058;17.040;2022-12-18T05:17:26;47.20;;;15.82;;
63350;SDS011;64988;51.058;17.040;2022-12-18T05:23:18;51.03;;;17.13;;
63350;SDS011;64988;51.058;17.040;2022-12-18T05:29:12;46.83;;;17.63;;
63350;SDS011;64988;51.058;17.040;2022-12-18T05:35:05;45.75;;;17.48;;
63350;SDS011;64988;51.058;17.040;2022-12-18T05:41:00;47.47;;;17.02;;
63350;SDS011;64988;51.058;17.040;2022-12-18T05:46:53;54.75;;;18.40;;
63350;SDS011;64988;51.058;17.040;2022-12-18T05:52:46;57.17;;;18.90;;
63350;SDS011;64988;51.058;17.040;2022-12-18T05:58:39;66.70;;;21.80;;
63350;SDS011;64988;51.058;17.040;2022-12-18T06:10:25;81.85;;;24.80;;
63350;SDS011;64988;51.058;17.040;2022-12-18T06:16:18;67.15;;;24.75;;
63350;SDS011;64988;51.058;17.040;2022-12-18T06:22:11;69.65;;;24.55;;
63350;SDS011;64988;51.058;17.040;2022-12-18T06:28:04;66.70;;;23.02;;
63350;SDS011;64988;51.058;17.040;2022-12-18T06:39:49;68.70;;;23.92;;
63350;SDS011;64988;51.058;17.040;2022-12-18T06:45:42;66.90;;;22.48;;
63350;SDS011;64988;51.058;17.040;2022-12-18T06:51:34;74.47;;;25.43;;
63350;SDS011;64988;51.058;17.040;2022-12-18T06:57:27;71.03;;;24.50;;
63350;SDS011;64988;51.058;17.040;2022-12-18T07:03:19;68.50;;;24.98;;
63350;SDS011;64988;51.058;17.040;2022-12-18T07:09:11;76.20;;;25.93;;
63350;SDS011;64988;51.058;17.040;2022-12-18T07:15:04;68.83;;;23.40;;
63350;SDS011;64988;51.058;17.040;2022-12-18T07:20:56;79.32;;;26.05;;
63350;SDS011;64988;51.058;17.040;2022-12-18T07:26:49;79.47;;;25.13;;
63350;SDS011;64988;51.058;17.040;2022-12-18T07:32:41;64.45;;;23.05;;
63350;SDS011;64988;51.058;17.040;2022-12-18T07:38:35;59.30;;;20.58;;
63350;SDS011;64988;51.058;17.040;2022-12-18T07:44:27;53.88;;;19.75;;
63350;SDS011;64988;51.058;17.040;2022-12-18T07:50:19;62.85;;;21.27;;
63350;SDS011;64988;51.058;17.040;2022-12-18T07:56:12;58.47;;;21.27;;
63350;SDS011;64988;51.058;17.040;2022-12-18T08:02:22;61.60;;;22.10;;
63350;SDS011;64988;51.058;17.040;2022-12-18T08:08:14;46.60;;;16.30;;
63350;SDS011;64988;51.058;17.040;2022-12-18T08:14:08;50.47;;;19.75;;
63350;SDS011;64988;51.058;17.040;2022-12-18T08:20:00;54.58;;;19.05;;
63350;SDS011;64988;51.058;17.040;2022-12-18T08:25:55;42.78;;;17.48;;
63350;SDS011;64988;51.058;17.040;2022-12-18T08:31:49;50.10;;;16.90;;
63350;SDS011;64988;51.058;17.040;2022-12-18T08:37:42;58.10;;;20.50;;
63350;SDS011;64988;51.058;17.040;2022-12-18T08:43:34;60.23;;;20.43;;
63350;SDS011;64988;51.058;17.040;2022-12-18T08:49:47;49.40;;;20.93;;
63350;SDS011;64988;51.058;17.040;2022-12-18T08:55:39;53.50;;;20.38;;
63350;SDS011;64988;51.058;17.040;2022-12-18T09:01:38;51.17;;;19.50;;
63350;SDS011;64988;51.058;17.040;2022-12-18T09:07:30;57.67;;;21.75;;
63350;SDS011;64988;51.058;17.040;2022-12-18T09:13:22;50.15;;;18.05;;
63350;SDS011;64988;51.058;17.040;2022-12-18T09:19:16;58.88;;;19.85;;
63350;SDS011;64988;51.058;17.040;2022-12-18T09:25:09;48.15;;;19.02;;
63350;SDS011;64988;51.058;17.040;2022-12-18T09:31:06;45.85;;;18.55;;
63350;SDS011;64988;51.058;17.040;2022-12-18T09:37:00;51.63;;;20.05;;
63350;SDS011;64988;51.058;17.040;2022-12-18T09:42:59;62.72;;;20.88;;
63350;SDS011;64988;51.058;17.040;2022-12-18T09:48:59;47.63;;;18.15;;
63350;SDS011;64988;51.058;17.040;2022-12-18T10:01:18;55.65;;;20.75;;
63350;SDS011;64988;51.058;17.040;2022-12-18T10:07:38;56.08;;;22.13;;
63350;SDS011;64988;51.058;17.040;2022-12-18T10:13:44;42.67;;;16.77;;
63350;SDS011;64988;51.058;17.040;2022-12-18T10:19:51;47.83;;;17.37;;
63350;SDS011;64988;51.058;17.040;2022-12-18T10:31:46;59.90;;;21.63;;
63350;SDS011;64988;51.058;17.040;2022-12-18T10:37:39;56.47;;;20.47;;
63350;SDS011;64988;51.058;17.040;2022-12-18T10:44:10;63.10;;;22.48;;
63350;SDS011;64988;51.058;17.040;2022-12-18T10:50:04;67.32;;;25.15;;
63350;SDS011;64988;51.058;17.040;2022-12-18T10:55:58;63.22;;;21.70;;
63350;SDS011;64988;51.058;17.040;2022-12-18T11:02:00;67.35;;;25.55;;
63350;SDS011;64988;51.058;17.040;2022-12-18T11:07:54;68.90;;;22.67;;
63350;SDS011;64988;51.058;17.040;2022-12-18T11:14:13;61.85;;;21.80;;
63350;SDS011;64988;51.058;17.040;2022-12-18T11:26:35;52.00;;;17.40;;
63350;SDS011;64988;51.058;17.040;2022-12-18T11:32:32;44.58;;;17.17;;
63350;SDS011;64988;51.058;17.040;2022-12-18T11:44:24;39.37;;;15.07;;
63350;SDS011;64988;51.058;17.040;2022-12-18T11:50:31;65.85;;;22.63;;
63350;SDS011;64988;51.058;17.040;2022-12-18T11:56:38;38.08;;;14.82;;
63350;SDS011;64988;51.058;17.040;2022-12-18T12:02:41;70.53;;;24.17;;
63350;SDS011;64988;51.058;17.040;2022-12-18T12:15:23;63.47;;;23.40;;
63350;SDS011;64988;51.058;17.040;2022-12-18T12:21:27;65.78;;;23.13;;
63350;SDS011;64988;51.058;17.040;2022-12-18T12:27:43;55.70;;;21.25;;
63350;SDS011;64988;51.058;17.040;2022-12-18T12:40:03;63.00;;;23.48;;
63350;SDS011;64988;51.058;17.040;2022-12-18T12:46:17;67.40;;;25.37;;
63350;SDS011;64988;51.058;17.040;2022-12-18T12:52:20;72.10;;;23.55;;
63350;SDS011;64988;51.058;17.040;2022-12-18T13:04:58;59.45;;;18.95;;
63350;SDS011;64988;51.058;17.040;2022-12-18T13:11:02;73.18;;;25.60;;
63350;SDS011;64988;51.058;17.040;2022-12-18T13:23:25;73.60;;;26.48;;
63350;SDS011;64988;51.058;17.040;2022-12-18T13:35:37;73.28;;;26.90;;
63350;SDS011;64988;51.058;17.040;2022-12-18T13:41:31;62.55;;;23.35;;
63350;SDS011;64988;51.058;17.040;2022-12-18T13:47:33;86.55;;;29.83;;
63350;SDS011;64988;51.058;17.040;2022-12-18T13:53:30;63.63;;;18.42;;
63350;SDS011;64988;51.058;17.040;2022-12-18T13:59:47;49.15;;;17.45;;
63350;SDS011;64988;51.058;17.040;2022-12-18T14:05:40;81.22;;;25.90;;
63350;SDS011;64988;51.058;17.040;2022-12-18T14:11:35;68.95;;;25.42;;
63350;SDS011;64988;51.058;17.040;2022-12-18T14:17:30;58.03;;;20.33;;
63350;SDS011;64988;51.058;17.040;2022-12-18T14:23:32;80.30;;;29.17;;
63350;SDS011;64988;51.058;17.040;2022-12-18T14:29:30;51.70;;;19.42;;
63350;SDS011;64988;51.058;17.040;2022-12-18T14:35:24;63.72;;;23.13;;
63350;SDS011;64988;51.058;17.040;2022-12-18T14:41:17;63.80;;;21.10;;
63350;SDS011;64988;51.058;17.040;2022-12-18T14:47:15;77.28;;;26.20;;
63350;SDS011;64988;51.058;17.040;2022-12-18T14:53:19;49.05;;;17.65;;
63350;SDS011;64988;51.058;17.040;2022-12-18T15:05:18;84.47;;;29.35;;
63350;SDS011;64988;51.058;17.040;2022-12-18T15:11:32;84.10;;;28.25;;
63350;SDS011;64988;51.058;17.040;2022-12-18T15:17:29;61.85;;;20.77;;
63350;SDS011;64988;51.058;17.040;2022-12-18T15:23:25;74.28;;;26.05;;
63350;SDS011;64988;51.058;17.040;2022-12-18T15:29:28;70.28;;;23.00;;
63350;SDS011;64988;51.058;17.040;2022-12-18T15:35:22;73.40;;;25.13;;
63350;SDS011;64988;51.058;17.040;2022-12-18T15:41:16;69.43;;;22.65;;
63350;SDS011;64988;51.058;17.040;2022-12-18T15:47:15;73.28;;;25.70;;
63350;SDS011;64988;51.058;17.040;2022-12-18T15:53:08;95.10;;;28.93;;
63350;SDS011;64988;51.058;17.040;2022-12-18T15:59:01;74.80;;;24.58;;
63350;SDS011;64988;51.058;17.040;2022-12-18T16:04:56;97.18;;;34.88;;
63350;SDS011;64988;51.058;17.040;2022-12-18T16:10:49;80.57;;;27.60;;
63350;SDS011;64988;51.058;17.040;2022-12-18T16:16:42;89.50;;;30.30;;
63350;SDS011;64988;51.058;17.040;2022-12-18T16:22:35;80.57;;;29.15;;
63350;SDS011;64988;51.058;17.040;2022-12-18T16:28:26;106.90;;;32.22;;
63350;SDS011;64988;51.058;17.040;2022-12-18T16:34:20;100.57;;;35.72;;
63350;SDS011;64988;51.058;17.040;2022-12-18T16:40:21;110.45;;;39.45;;
63350;SDS011;64988;51.058;17.040;2022-12-18T16:46:14;100.15;;;33.25;;
63350;SDS011;64988;51.058;17.040;2022-12-18T16:52:07;55.17;;;17.23;;
63350;SDS011;64988;51.058;17.040;2022-12-18T16:58:01;106.40;;;35.03;;
63350;SDS011;64988;51.058;17.040;2022-12-18T17:03:54;95.15;;;31.00;;
63350;SDS011;64988;51.058;17.040;2022-12-18T17:09:49;55.10;;;21.35;;
63350;SDS011;64988;51.058;17.040;2022-12-18T17:15:43;86.53;;;29.45;;
63350;SDS011;64988;51.058;17.040;2022-12-18T17:21:36;97.90;;;34.47;;
63350;SDS011;64988;51.058;17.040;2022-12-18T17:27:30;84.45;;;29.63;;
63350;SDS011;64988;51.058;17.040;2022-12-18T17:39:16;105.95;;;32.63;;
63350;SDS011;64988;51.058;17.040;2022-12-18T17:45:10;106.68;;;31.83;;
63350;SDS011;64988;51.058;17.040;2022-12-18T17:51:03;52.22;;;18.63;;
63350;SDS011;64988;51.058;17.040;2022-12-18T17:56:57;107.55;;;33.67;;
63350;SDS011;64988;51.058;17.040;2022-12-18T18:02:49;89.20;;;33.00;;
63350;SDS011;64988;51.058;17.040;2022-12-18T18:08:42;117.05;;;39.38;;
63350;SDS011;64988;51.058;17.040;2022-12-18T18:14:35;76.78;;;25.27;;
63350;SDS011;64988;51.058;17.040;2022-12-18T18:20:28;72.53;;;23.65;;
63350;SDS011;64988;51.058;17.040;2022-12-18T18:26:21;77.95;;;24.23;;
63350;SDS011;64988;51.058;17.040;2022-12-18T18:32:17;87.72;;;27.05;;
63350;SDS011;64988;51.058;17.040;2022-12-18T18:38:10;80.43;;;28.42;;
63350;SDS011;64988;51.058;17.040;2022-12-18T18:44:03;114.82;;;35.30;;
63350;SDS011;64988;51.058;17.040;2022-12-18T18:49:56;100.63;;;32.08;;
63350;SDS011;64988;51.058;17.040;2022-12-18T18:55:49;146.57;;;43.72;;
63350;SDS011;64988;51.058;17.040;2022-12-18T19:02:02;120.20;;;41.13;;
63350;SDS011;64988;51.058;17.040;2022-12-18T19:07:58;111.90;;;34.60;;
63350;SDS011;64988;51.058;17.040;2022-12-18T19:13:52;90.00;;;28.98;;
63350;SDS011;64988;51.058;17.040;2022-12-18T19:19:49;123.50;;;40.42;;
63350;SDS011;64988;51.058;17.040;2022-12-18T19:25:43;107.75;;;34.63;;
63350;SDS011;64988;51.058;17.040;2022-12-18T19:31:37;124.88;;;41.67;;
63350;SDS011;64988;51.058;17.040;2022-12-18T19:37:33;67.07;;;24.80;;
63350;SDS011;64988;51.058;17.040;2022-12-18T19:43:28;104.30;;;33.10;;
63350;SDS011;64988;51.058;17.040;2022-12-18T19:49:22;109.03;;;34.00;;
63350;SDS011;64988;51.058;17.040;2022-12-18T19:55:18;85.32;;;29.52;;
63350;SDS011;64988;51.058;17.040;2022-12-18T20:01:14;95.38;;;32.10;;
63350;SDS011;64988;51.058;17.040;2022-12-18T20:07:10;100.43;;;34.58;;
63350;SDS011;64988;51.058;17.040;2022-12-18T20:13:08;129.07;;;39.63;;
63350;SDS011;64988;51.058;17.040;2022-12-18T20:19:07;111.32;;;34.53;;
63350;SDS011;64988;51.058;17.040;2022-12-18T20:25:05;122.35;;;38.05;;
63350;SDS011;64988;51.058;17.040;2022-12-18T20:31:04;118.30;;;36.65;;
63350;SDS011;64988;51.058;17.040;2022-12-18T20:37:05;97.18;;;31.00;;
63350;SDS011;64988;51.058;17.040;2022-12-18T20:43:01;125.40;;;41.25;;
63350;SDS011;64988;51.058;17.040;2022-12-18T20:48:55;124.93;;;38.53;;
63350;SDS011;64988;51.058;17.040;2022-12-18T20:54:47;123.18;;;37.53;;
63350;SDS011;64988;51.058;17.040;2022-12-18T21:00:42;122.80;;;38.65;;
63350;SDS011;64988;51.058;17.040;2022-12-18T21:06:36;122.50;;;37.60;;
63350;SDS011;64988;51.058;17.040;2022-12-18T21:12:35;129.30;;;41.53;;
63350;SDS011;64988;51.058;17.040;2022-12-18T21:18:39;115.45;;;36.15;;
63350;SDS011;64988;51.058;17.040;2022-12-18T21:24:32;130.05;;;39.72;;
63350;SDS011;64988;51.058;17.040;2022-12-18T21:30:25;131.63;;;39.42;;
63350;SDS011;64988;51.058;17.040;2022-12-18T21:36:18;135.35;;;32.53;;
63350;SDS011;64988;51.058;17.040;2022-12-18T21:42:11;105.60;;;32.22;;
63350;SDS011;64988;51.058;17.040;2022-12-18T21:48:22;101.43;;;36.17;;
63350;SDS011;64988;51.058;17.040;2022-12-18T21:54:14;100.90;;;36.80;;
63350;SDS011;64988;51.058;17.040;2022-12-18T22:00:10;100.45;;;31.80;;
63350;SDS011;64988;51.058;17.040;2022-12-18T22:06:10;110.03;;;32.63;;
63350;SDS011;64988;51.058;17.040;2022-12-18T22:12:03;102.38;;;31.73;;
63350;SDS011;64988;51.058;17.040;2022-12-18T22:17:57;91.30;;;29.08;;
63350;SDS011;64988;51.058;17.040;2022-12-18T22:23:55;102.28;;;30.73;;
63350;SDS011;64988;51.058;17.040;2022-12-18T22:29:49;144.32;;;44.05;;
63350;SDS011;64988;51.058;17.040;2022-12-18T22:35:56;163.00;;;47.15;;
63350;SDS011;64988;51.058;17.040;2022-12-18T22:41:49;143.13;;;44.75;;
63350;SDS011;64988;51.058;17.040;2022-12-18T22:47:43;157.70;;;51.67;;
63350;SDS011;64988;51.058;17.040;2022-12-18T22:53:35;117.03;;;34.05;;
63350;SDS011;64988;51.058;17.040;2022-12-18T22:59:28;106.40;;;34.00;;
63350;SDS011;64988;51.058;17.040;2022-12-18T23:05:20;124.82;;;41.03;;
63350;SDS011;64988;51.058;17.040;2022-12-18T23:11:15;86.50;;;32.42;;
63350;SDS011;64988;51.058;17.040;2022-12-18T23:17:08;171.15;;;50.63;;
63350;SDS011;64988;51.058;17.040;2022-12-18T23:34:48;160.57;;;52.15;;
63350;SDS011;64988;51.058;17.040;2022-12-18T23:40:40;126.15;;;39.13;;
63350;SDS011;64988;51.058;17.040;2022-12-18T23:46:34;160.77;;;53.85;;
63350;SDS011;64988;51.058;17.040;2022-12-18T23:52:28;167.10;;;52.25;;
63350;SDS011;64988;51.058;17.040;2022-12-18T23:58:21;203.68;;;56.88;;
